sensor_id;sensor_type;location;lat;lon;timestamp;P1;durP1;ratioP1;P2;durP2;ratioP2
24163;SDS011;12319;49.204;8.116;2022-08-03T00:01:41;0.90;;;0.90;;
24163;SDS011;12319;49.204;8.116;2022-08-03T00:04:08;0.70;;;0.70;;
24163;SDS011;12319;49.204;8.116;2022-08-03T00:06:34;0.90;;;0.90;;
24163;SDS011;12319;49.204;8.116;2022-08-03T00:09:01;1.08;;;0.80;;
24163;SDS011;12319;49.204;8.116;2022-08-03T00:11:27;0.80;;;0.80;;
24163;SDS011;12319;49.204;8.116;2022-08-03T00:13:53;0.70;;;0.70;;
24163;SDS011;12319;49.204;8.116;2022-08-03T00:16:18;1.05;;;0.90;;
24163;SDS011;12319;49.204;8.116;2022-08-03T00:18:44;0.98;;;0.90;;
24163;SDS011;12319;49.204;8.116;2022-08-03T00:21:10;0.70;;;0.70;;
24163;SDS011;12319;49.204;8.116;2022-08-03T00:23:35;0.85;;;0.80;;
24163;SDS011;12319;49.204;8.116;2022-08-03T00:26:01;0.77;;;0.77;;
24163;SDS011;12319;49.204;8.116;2022-08-03T00:28:27;1.17;;;1.00;;
24163;SDS011;12319;49.204;8.116;2022-08-03T00:30:53;0.88;;;0.88;;
24163;SDS011;12319;49.204;8.116;2022-08-03T00:33:19;0.95;;;0.85;;
24163;SDS011;12319;49.204;8.116;2022-08-03T00:35:45;1.00;;;0.80;;
24163;SDS011;12319;49.204;8.116;2022-08-03T00:38:11;0.95;;;0.88;;
24163;SDS011;12319;49.204;8.116;2022-08-03T00:40:37;0.73;;;0.73;;
24163;SDS011;12319;49.204;8.116;2022-08-03T00:43:04;0.93;;;0.88;;
24163;SDS011;12319;49.204;8.116;2022-08-03T00:45:32;0.98;;;0.98;;
24163;SDS011;12319;49.204;8.116;2022-08-03T00:48:01;0.77;;;0.77;;
24163;SDS011;12319;49.204;8.116;2022-08-03T00:50:31;0.70;;;0.70;;
24163;SDS011;12319;49.204;8.116;2022-08-03T00:52:59;0.82;;;0.82;;
24163;SDS011;12319;49.204;8.116;2022-08-03T00:55:26;0.90;;;0.90;;
24163;SDS011;12319;49.204;8.116;2022-08-03T00:57:52;1.02;;;0.93;;
24163;SDS011;12319;49.204;8.116;2022-08-03T01:00:24;1.00;;;0.90;;
24163;SDS011;12319;49.204;8.116;2022-08-03T01:02:52;0.88;;;0.73;;
24163;SDS011;12319;49.204;8.116;2022-08-03T01:05:18;0.80;;;0.80;;
24163;SDS011;12319;49.204;8.116;2022-08-03T01:07:47;1.52;;;0.82;;
24163;SDS011;12319;49.204;8.116;2022-08-03T01:10:32;0.98;;;0.90;;
24163;SDS011;12319;49.204;8.116;2022-08-03T01:13:19;0.80;;;0.75;;
24163;SDS011;12319;49.204;8.116;2022-08-03T01:16:00;0.73;;;0.73;;
24163;SDS011;12319;49.204;8.116;2022-08-03T01:21:12;0.90;;;0.77;;
24163;SDS011;12319;49.204;8.116;2022-08-03T01:32:09;0.85;;;0.80;;
24163;SDS011;12319;49.204;8.116;2022-08-03T01:34:42;0.82;;;0.82;;
24163;SDS011;12319;49.204;8.116;2022-08-03T01:37:11;1.33;;;0.77;;
24163;SDS011;12319;49.204;8.116;2022-08-03T01:39:39;1.13;;;1.02;;
24163;SDS011;12319;49.204;8.116;2022-08-03T01:42:05;0.98;;;0.80;;
24163;SDS011;12319;49.204;8.116;2022-08-03T01:44:36;0.80;;;0.80;;
24163;SDS011;12319;49.204;8.116;2022-08-03T01:47:04;0.90;;;0.90;;
24163;SDS011;12319;49.204;8.116;2022-08-03T01:49:32;0.70;;;0.70;;
24163;SDS011;12319;49.204;8.116;2022-08-03T01:52:03;1.45;;;1.23;;
24163;SDS011;12319;49.204;8.116;2022-08-03T01:54:29;0.75;;;0.75;;
24163;SDS011;12319;49.204;8.116;2022-08-03T01:57:00;0.95;;;0.88;;
24163;SDS011;12319;49.204;8.116;2022-08-03T01:59:27;0.85;;;0.85;;
24163;SDS011;12319;49.204;8.116;2022-08-03T02:01:54;1.02;;;0.70;;
24163;SDS011;12319;49.204;8.116;2022-08-03T02:04:23;0.75;;;0.75;;
24163;SDS011;12319;49.204;8.116;2022-08-03T02:06:51;1.00;;;1.00;;
24163;SDS011;12319;49.204;8.116;2022-08-03T02:09:18;0.70;;;0.70;;
24163;SDS011;12319;49.204;8.116;2022-08-03T02:11:46;0.80;;;0.80;;
24163;SDS011;12319;49.204;8.116;2022-08-03T02:14:12;1.10;;;1.00;;
24163;SDS011;12319;49.204;8.116;2022-08-03T02:16:39;0.88;;;0.88;;
24163;SDS011;12319;49.204;8.116;2022-08-03T02:19:07;1.15;;;0.90;;
24163;SDS011;12319;49.204;8.116;2022-08-03T02:21:35;1.10;;;1.00;;
24163;SDS011;12319;49.204;8.116;2022-08-03T02:24:02;0.70;;;0.70;;
24163;SDS011;12319;49.204;8.116;2022-08-03T02:26:29;1.13;;;0.95;;
24163;SDS011;12319;49.204;8.116;2022-08-03T02:28:57;1.10;;;0.82;;
24163;SDS011;12319;49.204;8.116;2022-08-03T02:31:26;1.63;;;0.88;;
24163;SDS011;12319;49.204;8.116;2022-08-03T02:33:56;1.02;;;0.93;;
24163;SDS011;12319;49.204;8.116;2022-08-03T02:36:26;2.25;;;0.80;;
24163;SDS011;12319;49.204;8.116;2022-08-03T02:38:54;1.00;;;0.80;;
24163;SDS011;12319;49.204;8.116;2022-08-03T02:41:28;0.82;;;0.82;;
24163;SDS011;12319;49.204;8.116;2022-08-03T02:43:59;1.77;;;0.90;;
24163;SDS011;12319;49.204;8.116;2022-08-03T02:46:29;1.08;;;0.95;;
24163;SDS011;12319;49.204;8.116;2022-08-03T02:48:57;0.80;;;0.80;;
24163;SDS011;12319;49.204;8.116;2022-08-03T02:51:25;1.08;;;0.98;;
24163;SDS011;12319;49.204;8.116;2022-08-03T02:53:53;0.82;;;0.82;;
24163;SDS011;12319;49.204;8.116;2022-08-03T02:56:21;3.35;;;0.80;;
24163;SDS011;12319;49.204;8.116;2022-08-03T02:58:49;0.95;;;0.90;;
24163;SDS011;12319;49.204;8.116;2022-08-03T03:01:18;1.00;;;0.90;;
24163;SDS011;12319;49.204;8.116;2022-08-03T03:03:45;1.33;;;0.93;;
24163;SDS011;12319;49.204;8.116;2022-08-03T03:06:13;2.25;;;1.08;;
24163;SDS011;12319;49.204;8.116;2022-08-03T03:08:41;1.08;;;0.98;;
24163;SDS011;12319;49.204;8.116;2022-08-03T03:11:06;0.88;;;0.88;;
24163;SDS011;12319;49.204;8.116;2022-08-03T03:13:34;0.80;;;0.80;;
24163;SDS011;12319;49.204;8.116;2022-08-03T03:16:01;0.77;;;0.77;;
24163;SDS011;12319;49.204;8.116;2022-08-03T03:18:30;1.00;;;0.90;;
24163;SDS011;12319;49.204;8.116;2022-08-03T03:20:56;1.05;;;0.80;;
24163;SDS011;12319;49.204;8.116;2022-08-03T03:23:24;2.13;;;0.80;;
24163;SDS011;12319;49.204;8.116;2022-08-03T03:25:51;0.80;;;0.80;;
24163;SDS011;12319;49.204;8.116;2022-08-03T03:28:19;0.70;;;0.70;;
24163;SDS011;12319;49.204;8.116;2022-08-03T03:30:46;0.80;;;0.80;;
24163;SDS011;12319;49.204;8.116;2022-08-03T03:33:12;0.80;;;0.80;;
24163;SDS011;12319;49.204;8.116;2022-08-03T03:35:38;1.23;;;0.90;;
24163;SDS011;12319;49.204;8.116;2022-08-03T03:38:06;0.80;;;0.80;;
24163;SDS011;12319;49.204;8.116;2022-08-03T03:40:34;0.95;;;0.80;;
24163;SDS011;12319;49.204;8.116;2022-08-03T03:43:00;0.80;;;0.80;;
24163;SDS011;12319;49.204;8.116;2022-08-03T03:45:27;0.90;;;0.90;;
24163;SDS011;12319;49.204;8.116;2022-08-03T03:47:55;0.90;;;0.90;;
24163;SDS011;12319;49.204;8.116;2022-08-03T03:50:21;1.35;;;0.88;;
24163;SDS011;12319;49.204;8.116;2022-08-03T03:52:47;0.70;;;0.70;;
24163;SDS011;12319;49.204;8.116;2022-08-03T03:55:16;0.82;;;0.82;;
24163;SDS011;12319;49.204;8.116;2022-08-03T03:57:42;0.80;;;0.80;;
24163;SDS011;12319;49.204;8.116;2022-08-03T04:00:08;1.13;;;0.95;;
24163;SDS011;12319;49.204;8.116;2022-08-03T04:02:35;1.00;;;0.88;;
24163;SDS011;12319;49.204;8.116;2022-08-03T04:05:01;1.00;;;1.00;;
24163;SDS011;12319;49.204;8.116;2022-08-03T04:07:45;1.05;;;0.70;;
24163;SDS011;12319;49.204;8.116;2022-08-03T04:10:45;0.80;;;0.80;;
24163;SDS011;12319;49.204;8.116;2022-08-03T04:13:34;0.95;;;0.95;;
24163;SDS011;12319;49.204;8.116;2022-08-03T04:16:02;1.63;;;1.00;;
24163;SDS011;12319;49.204;8.116;2022-08-03T04:18:29;1.30;;;0.95;;
24163;SDS011;12319;49.204;8.116;2022-08-03T04:20:58;1.20;;;0.90;;
24163;SDS011;12319;49.204;8.116;2022-08-03T04:23:27;1.00;;;0.90;;
24163;SDS011;12319;49.204;8.116;2022-08-03T04:25:57;1.10;;;1.00;;
24163;SDS011;12319;49.204;8.116;2022-08-03T04:28:26;1.30;;;1.20;;
24163;SDS011;12319;49.204;8.116;2022-08-03T04:30:52;1.10;;;1.00;;
24163;SDS011;12319;49.204;8.116;2022-08-03T04:33:20;1.27;;;1.02;;
24163;SDS011;12319;49.204;8.116;2022-08-03T04:35:47;0.65;;;0.65;;
24163;SDS011;12319;49.204;8.116;2022-08-03T04:38:14;1.15;;;1.00;;
24163;SDS011;12319;49.204;8.116;2022-08-03T04:40:43;0.80;;;0.80;;
24163;SDS011;12319;49.204;8.116;2022-08-03T04:43:10;1.00;;;1.00;;
24163;SDS011;12319;49.204;8.116;2022-08-03T04:45:38;1.20;;;0.90;;
24163;SDS011;12319;49.204;8.116;2022-08-03T04:48:05;0.90;;;0.90;;
24163;SDS011;12319;49.204;8.116;2022-08-03T04:50:31;0.93;;;0.93;;
24163;SDS011;12319;49.204;8.116;2022-08-03T04:52:58;1.05;;;0.98;;
24163;SDS011;12319;49.204;8.116;2022-08-03T04:57:53;2.88;;;1.00;;
24163;SDS011;12319;49.204;8.116;2022-08-03T05:00:19;0.70;;;0.70;;
24163;SDS011;12319;49.204;8.116;2022-08-03T05:02:45;0.90;;;0.90;;
24163;SDS011;12319;49.204;8.116;2022-08-03T05:05:11;0.80;;;0.80;;
24163;SDS011;12319;49.204;8.116;2022-08-03T05:07:36;0.80;;;0.80;;
24163;SDS011;12319;49.204;8.116;2022-08-03T05:10:03;0.80;;;0.80;;
24163;SDS011;12319;49.204;8.116;2022-08-03T05:12:30;0.80;;;0.80;;
24163;SDS011;12319;49.204;8.116;2022-08-03T05:14:55;1.25;;;0.70;;
24163;SDS011;12319;49.204;8.116;2022-08-03T05:17:21;1.45;;;1.20;;
24163;SDS011;12319;49.204;8.116;2022-08-03T05:19:46;2.05;;;0.75;;
24163;SDS011;12319;49.204;8.116;2022-08-03T05:22:12;3.85;;;1.20;;
24163;SDS011;12319;49.204;8.116;2022-08-03T05:24:37;0.95;;;0.93;;
24163;SDS011;12319;49.204;8.116;2022-08-03T05:27:03;1.33;;;0.90;;
24163;SDS011;12319;49.204;8.116;2022-08-03T05:29:28;0.80;;;0.80;;
24163;SDS011;12319;49.204;8.116;2022-08-03T05:31:54;3.20;;;1.20;;
24163;SDS011;12319;49.204;8.116;2022-08-03T05:34:19;1.88;;;1.30;;
24163;SDS011;12319;49.204;8.116;2022-08-03T05:36:45;2.50;;;1.23;;
24163;SDS011;12319;49.204;8.116;2022-08-03T05:39:10;2.33;;;1.00;;
24163;SDS011;12319;49.204;8.116;2022-08-03T05:41:36;1.85;;;1.20;;
24163;SDS011;12319;49.204;8.116;2022-08-03T05:44:02;2.88;;;1.30;;
24163;SDS011;12319;49.204;8.116;2022-08-03T05:46:27;2.25;;;1.20;;
24163;SDS011;12319;49.204;8.116;2022-08-03T05:48:53;3.30;;;1.33;;
24163;SDS011;12319;49.204;8.116;2022-08-03T05:51:18;1.73;;;1.20;;
24163;SDS011;12319;49.204;8.116;2022-08-03T05:53:44;2.03;;;1.20;;
24163;SDS011;12319;49.204;8.116;2022-08-03T05:56:09;1.35;;;1.00;;
24163;SDS011;12319;49.204;8.116;2022-08-03T05:58:36;3.88;;;1.40;;
24163;SDS011;12319;49.204;8.116;2022-08-03T06:01:02;2.53;;;1.50;;
24163;SDS011;12319;49.204;8.116;2022-08-03T06:03:27;1.33;;;1.20;;
24163;SDS011;12319;49.204;8.116;2022-08-03T06:05:53;2.65;;;1.02;;
24163;SDS011;12319;49.204;8.116;2022-08-03T06:08:20;4.32;;;1.20;;
24163;SDS011;12319;49.204;8.116;2022-08-03T06:10:46;1.35;;;0.95;;
24163;SDS011;12319;49.204;8.116;2022-08-03T06:13:12;3.55;;;1.23;;
24163;SDS011;12319;49.204;8.116;2022-08-03T06:15:37;2.95;;;1.10;;
24163;SDS011;12319;49.204;8.116;2022-08-03T06:18:03;1.13;;;1.00;;
24163;SDS011;12319;49.204;8.116;2022-08-03T06:20:28;2.33;;;1.05;;
24163;SDS011;12319;49.204;8.116;2022-08-03T06:22:54;2.78;;;1.17;;
24163;SDS011;12319;49.204;8.116;2022-08-03T06:25:19;6.47;;;5.97;;
24163;SDS011;12319;49.204;8.116;2022-08-03T06:27:45;4.72;;;3.30;;
24163;SDS011;12319;49.204;8.116;2022-08-03T06:30:11;4.28;;;2.10;;
24163;SDS011;12319;49.204;8.116;2022-08-03T06:32:37;1.52;;;1.42;;
24163;SDS011;12319;49.204;8.116;2022-08-03T06:35:06;3.17;;;1.30;;
24163;SDS011;12319;49.204;8.116;2022-08-03T06:37:49;1.63;;;1.40;;
24163;SDS011;12319;49.204;8.116;2022-08-03T06:40:19;1.42;;;1.33;;
24163;SDS011;12319;49.204;8.116;2022-08-03T06:42:56;1.80;;;1.70;;
24163;SDS011;12319;49.204;8.116;2022-08-03T06:45:23;1.60;;;1.50;;
24163;SDS011;12319;49.204;8.116;2022-08-03T06:47:58;2.13;;;2.03;;
24163;SDS011;12319;49.204;8.116;2022-08-03T06:50:25;5.70;;;2.20;;
24163;SDS011;12319;49.204;8.116;2022-08-03T06:52:51;2.42;;;2.22;;
24163;SDS011;12319;49.204;8.116;2022-08-03T06:55:16;2.65;;;2.55;;
24163;SDS011;12319;49.204;8.116;2022-08-03T06:57:42;3.50;;;2.63;;
24163;SDS011;12319;49.204;8.116;2022-08-03T07:00:07;2.50;;;2.40;;
24163;SDS011;12319;49.204;8.116;2022-08-03T07:02:34;2.85;;;2.75;;
24163;SDS011;12319;49.204;8.116;2022-08-03T07:04:59;2.90;;;2.80;;
24163;SDS011;12319;49.204;8.116;2022-08-03T07:07:25;3.45;;;3.10;;
24163;SDS011;12319;49.204;8.116;2022-08-03T07:09:50;2.83;;;2.72;;
24163;SDS011;12319;49.204;8.116;2022-08-03T07:12:16;3.05;;;2.95;;
24163;SDS011;12319;49.204;8.116;2022-08-03T07:14:41;3.45;;;3.25;;
24163;SDS011;12319;49.204;8.116;2022-08-03T07:17:07;3.90;;;3.70;;
24163;SDS011;12319;49.204;8.116;2022-08-03T07:19:32;3.95;;;3.65;;
24163;SDS011;12319;49.204;8.116;2022-08-03T07:21:58;4.15;;;3.95;;
24163;SDS011;12319;49.204;8.116;2022-08-03T07:24:23;4.30;;;4.10;;
24163;SDS011;12319;49.204;8.116;2022-08-03T07:26:49;4.13;;;3.92;;
24163;SDS011;12319;49.204;8.116;2022-08-03T07:29:14;4.82;;;4.57;;
24163;SDS011;12319;49.204;8.116;2022-08-03T07:31:40;4.30;;;4.10;;
24163;SDS011;12319;49.204;8.116;2022-08-03T07:34:06;8.13;;;4.70;;
24163;SDS011;12319;49.204;8.116;2022-08-03T07:36:31;4.95;;;4.75;;
24163;SDS011;12319;49.204;8.116;2022-08-03T07:38:57;5.13;;;4.82;;
24163;SDS011;12319;49.204;8.116;2022-08-03T07:41:23;5.32;;;5.03;;
24163;SDS011;12319;49.204;8.116;2022-08-03T07:43:48;5.63;;;5.32;;
24163;SDS011;12319;49.204;8.116;2022-08-03T07:46:14;5.57;;;5.28;;
24163;SDS011;12319;49.204;8.116;2022-08-03T07:48:39;5.85;;;5.55;;
24163;SDS011;12319;49.204;8.116;2022-08-03T07:51:05;6.18;;;5.88;;
24163;SDS011;12319;49.204;8.116;2022-08-03T07:53:31;5.72;;;5.43;;
24163;SDS011;12319;49.204;8.116;2022-08-03T07:55:56;6.20;;;5.80;;
24163;SDS011;12319;49.204;8.116;2022-08-03T07:58:22;6.45;;;6.05;;
24163;SDS011;12319;49.204;8.116;2022-08-03T08:00:48;6.68;;;6.28;;
24163;SDS011;12319;49.204;8.116;2022-08-03T08:03:15;6.47;;;6.18;;
24163;SDS011;12319;49.204;8.116;2022-08-03T08:05:40;5.82;;;5.53;;
24163;SDS011;12319;49.204;8.116;2022-08-03T08:08:06;6.85;;;6.55;;
24163;SDS011;12319;49.204;8.116;2022-08-03T08:10:32;6.03;;;5.72;;
24163;SDS011;12319;49.204;8.116;2022-08-03T08:12:58;6.53;;;6.22;;
24163;SDS011;12319;49.204;8.116;2022-08-03T08:15:23;6.55;;;6.25;;
24163;SDS011;12319;49.204;8.116;2022-08-03T08:17:50;6.55;;;6.22;;
24163;SDS011;12319;49.204;8.116;2022-08-03T08:20:21;6.40;;;6.00;;
24163;SDS011;12319;49.204;8.116;2022-08-03T08:22:49;6.05;;;5.75;;
24163;SDS011;12319;49.204;8.116;2022-08-03T08:25:15;5.78;;;5.43;;
24163;SDS011;12319;49.204;8.116;2022-08-03T08:27:44;5.78;;;5.47;;
24163;SDS011;12319;49.204;8.116;2022-08-03T08:30:11;5.60;;;5.30;;
24163;SDS011;12319;49.204;8.116;2022-08-03T08:32:38;4.97;;;4.70;;
24163;SDS011;12319;49.204;8.116;2022-08-03T08:35:04;4.97;;;4.68;;
24163;SDS011;12319;49.204;8.116;2022-08-03T08:37:30;4.32;;;4.07;;
24163;SDS011;12319;49.204;8.116;2022-08-03T08:39:56;4.47;;;4.20;;
24163;SDS011;12319;49.204;8.116;2022-08-03T08:42:22;6.07;;;5.78;;
24163;SDS011;12319;49.204;8.116;2022-08-03T08:44:48;4.57;;;4.38;;
24163;SDS011;12319;49.204;8.116;2022-08-03T08:47:13;3.63;;;3.22;;
24163;SDS011;12319;49.204;8.116;2022-08-03T08:49:39;2.25;;;2.15;;
24163;SDS011;12319;49.204;8.116;2022-08-03T08:52:06;1.88;;;1.77;;
24163;SDS011;12319;49.204;8.116;2022-08-03T08:54:33;1.67;;;1.50;;
24163;SDS011;12319;49.204;8.116;2022-08-03T08:57:02;1.60;;;1.50;;
24163;SDS011;12319;49.204;8.116;2022-08-03T08:59:31;1.95;;;1.33;;
24163;SDS011;12319;49.204;8.116;2022-08-03T09:01:58;1.20;;;1.20;;
24163;SDS011;12319;49.204;8.116;2022-08-03T09:04:24;2.25;;;1.05;;
24163;SDS011;12319;49.204;8.116;2022-08-03T09:06:50;0.90;;;0.90;;
24163;SDS011;12319;49.204;8.116;2022-08-03T09:09:16;0.90;;;0.90;;
24163;SDS011;12319;49.204;8.116;2022-08-03T09:11:42;1.30;;;0.90;;
24163;SDS011;12319;49.204;8.116;2022-08-03T09:14:08;0.80;;;0.80;;
24163;SDS011;12319;49.204;8.116;2022-08-03T09:16:34;0.90;;;0.90;;
24163;SDS011;12319;49.204;8.116;2022-08-03T09:19:10;0.98;;;0.90;;
24163;SDS011;12319;49.204;8.116;2022-08-03T09:21:40;1.08;;;0.80;;
24163;SDS011;12319;49.204;8.116;2022-08-03T09:24:05;1.65;;;1.00;;
24163;SDS011;12319;49.204;8.116;2022-08-03T09:26:34;1.10;;;1.00;;
24163;SDS011;12319;49.204;8.116;2022-08-03T09:29:06;1.55;;;0.98;;
24163;SDS011;12319;49.204;8.116;2022-08-03T09:31:43;0.88;;;0.88;;
24163;SDS011;12319;49.204;8.116;2022-08-03T09:34:11;1.00;;;0.90;;
24163;SDS011;12319;49.204;8.116;2022-08-03T09:36:45;0.80;;;0.80;;
24163;SDS011;12319;49.204;8.116;2022-08-03T09:39:15;1.00;;;0.90;;
24163;SDS011;12319;49.204;8.116;2022-08-03T09:41:45;0.80;;;0.80;;
24163;SDS011;12319;49.204;8.116;2022-08-03T09:44:35;1.25;;;0.70;;
24163;SDS011;12319;49.204;8.116;2022-08-03T09:47:03;0.82;;;0.82;;
24163;SDS011;12319;49.204;8.116;2022-08-03T09:49:34;1.00;;;0.90;;
24163;SDS011;12319;49.204;8.116;2022-08-03T09:52:00;1.08;;;0.80;;
24163;SDS011;12319;49.204;8.116;2022-08-03T09:54:36;2.78;;;0.80;;
24163;SDS011;12319;49.204;8.116;2022-08-03T09:57:02;2.08;;;0.80;;
24163;SDS011;12319;49.204;8.116;2022-08-03T09:59:28;0.80;;;0.80;;
24163;SDS011;12319;49.204;8.116;2022-08-03T10:01:55;1.35;;;0.80;;
24163;SDS011;12319;49.204;8.116;2022-08-03T10:04:23;0.88;;;0.88;;
24163;SDS011;12319;49.204;8.116;2022-08-03T10:09:34;1.48;;;0.90;;
24163;SDS011;12319;49.204;8.116;2022-08-03T10:12:11;1.08;;;0.88;;
24163;SDS011;12319;49.204;8.116;2022-08-03T10:14:37;0.80;;;0.80;;
24163;SDS011;12319;49.204;8.116;2022-08-03T10:17:05;1.00;;;0.98;;
24163;SDS011;12319;49.204;8.116;2022-08-03T10:19:31;1.58;;;1.20;;
24163;SDS011;12319;49.204;8.116;2022-08-03T10:22:00;0.80;;;0.80;;
24163;SDS011;12319;49.204;8.116;2022-08-03T10:24:29;1.02;;;1.02;;
24163;SDS011;12319;49.204;8.116;2022-08-03T10:27:01;1.13;;;0.80;;
24163;SDS011;12319;49.204;8.116;2022-08-03T10:29:31;1.50;;;0.88;;
24163;SDS011;12319;49.204;8.116;2022-08-03T10:32:01;0.70;;;0.70;;
24163;SDS011;12319;49.204;8.116;2022-08-03T10:34:33;0.70;;;0.70;;
24163;SDS011;12319;49.204;8.116;2022-08-03T10:37:01;1.40;;;1.10;;
24163;SDS011;12319;49.204;8.116;2022-08-03T10:39:33;5.00;;;0.88;;
24163;SDS011;12319;49.204;8.116;2022-08-03T10:41:59;0.85;;;0.82;;
24163;SDS011;12319;49.204;8.116;2022-08-03T10:44:27;0.90;;;0.90;;
24163;SDS011;12319;49.204;8.116;2022-08-03T10:46:56;1.23;;;1.00;;
24163;SDS011;12319;49.204;8.116;2022-08-03T10:49:22;0.98;;;0.88;;
24163;SDS011;12319;49.204;8.116;2022-08-03T10:51:49;1.38;;;0.90;;
24163;SDS011;12319;49.204;8.116;2022-08-03T10:56:59;0.85;;;0.85;;
24163;SDS011;12319;49.204;8.116;2022-08-03T11:02:15;0.82;;;0.82;;
24163;SDS011;12319;49.204;8.116;2022-08-03T11:04:41;3.03;;;0.90;;
24163;SDS011;12319;49.204;8.116;2022-08-03T11:09:44;1.60;;;0.80;;
24163;SDS011;12319;49.204;8.116;2022-08-03T11:12:22;0.90;;;0.77;;
24163;SDS011;12319;49.204;8.116;2022-08-03T11:14:48;0.80;;;0.80;;
24163;SDS011;12319;49.204;8.116;2022-08-03T11:17:13;0.95;;;0.90;;
24163;SDS011;12319;49.204;8.116;2022-08-03T11:19:43;0.90;;;0.90;;
24163;SDS011;12319;49.204;8.116;2022-08-03T11:22:11;0.90;;;0.90;;
24163;SDS011;12319;49.204;8.116;2022-08-03T11:35:56;1.20;;;0.90;;
24163;SDS011;12319;49.204;8.116;2022-08-03T11:46:02;0.73;;;0.73;;
24163;SDS011;12319;49.204;8.116;2022-08-03T11:48:39;0.75;;;0.75;;
24163;SDS011;12319;49.204;8.116;2022-08-03T11:53:52;0.82;;;0.70;;
24163;SDS011;12319;49.204;8.116;2022-08-03T11:56:21;0.70;;;0.70;;
24163;SDS011;12319;49.204;8.116;2022-08-03T11:58:48;0.82;;;0.82;;
24163;SDS011;12319;49.204;8.116;2022-08-03T12:01:19;0.93;;;0.93;;
24163;SDS011;12319;49.204;8.116;2022-08-03T12:03:45;0.85;;;0.85;;
24163;SDS011;12319;49.204;8.116;2022-08-03T12:06:12;0.85;;;0.85;;
24163;SDS011;12319;49.204;8.116;2022-08-03T12:08:40;0.73;;;0.73;;
24163;SDS011;12319;49.204;8.116;2022-08-03T12:11:07;1.02;;;0.75;;
24163;SDS011;12319;49.204;8.116;2022-08-03T12:13:41;1.35;;;0.98;;
24163;SDS011;12319;49.204;8.116;2022-08-03T12:16:09;0.80;;;0.80;;
24163;SDS011;12319;49.204;8.116;2022-08-03T12:18:35;0.73;;;0.73;;
24163;SDS011;12319;49.204;8.116;2022-08-03T12:21:07;0.75;;;0.75;;
24163;SDS011;12319;49.204;8.116;2022-08-03T12:23:34;0.80;;;0.80;;
24163;SDS011;12319;49.204;8.116;2022-08-03T12:26:02;0.77;;;0.77;;
24163;SDS011;12319;49.204;8.116;2022-08-03T12:28:29;1.40;;;0.90;;
24163;SDS011;12319;49.204;8.116;2022-08-03T12:30:59;0.90;;;0.90;;
24163;SDS011;12319;49.204;8.116;2022-08-03T12:33:30;1.13;;;1.00;;
24163;SDS011;12319;49.204;8.116;2022-08-03T12:36:06;0.90;;;0.90;;
24163;SDS011;12319;49.204;8.116;2022-08-03T12:38:34;0.90;;;0.90;;
24163;SDS011;12319;49.204;8.116;2022-08-03T12:41:05;0.90;;;0.90;;
24163;SDS011;12319;49.204;8.116;2022-08-03T12:43:33;0.80;;;0.80;;
24163;SDS011;12319;49.204;8.116;2022-08-03T12:46:05;0.95;;;0.90;;
24163;SDS011;12319;49.204;8.116;2022-08-03T12:48:33;4.80;;;0.80;;
24163;SDS011;12319;49.204;8.116;2022-08-03T12:51:08;0.80;;;0.80;;
24163;SDS011;12319;49.204;8.116;2022-08-03T12:53:34;0.82;;;0.63;;
24163;SDS011;12319;49.204;8.116;2022-08-03T12:56:01;1.20;;;1.15;;
24163;SDS011;12319;49.204;8.116;2022-08-03T12:58:33;1.45;;;1.02;;
24163;SDS011;12319;49.204;8.116;2022-08-03T13:01:00;0.90;;;0.90;;
24163;SDS011;12319;49.204;8.116;2022-08-03T13:03:26;0.77;;;0.77;;
24163;SDS011;12319;49.204;8.116;2022-08-03T13:05:52;0.85;;;0.85;;
24163;SDS011;12319;49.204;8.116;2022-08-03T13:08:18;1.63;;;0.80;;
24163;SDS011;12319;49.204;8.116;2022-08-03T13:10:45;0.80;;;0.80;;
24163;SDS011;12319;49.204;8.116;2022-08-03T13:13:10;0.90;;;0.80;;
24163;SDS011;12319;49.204;8.116;2022-08-03T13:15:36;1.00;;;1.00;;
24163;SDS011;12319;49.204;8.116;2022-08-03T13:18:02;0.90;;;0.90;;
24163;SDS011;12319;49.204;8.116;2022-08-03T13:20:27;1.13;;;1.05;;
24163;SDS011;12319;49.204;8.116;2022-08-03T13:22:53;1.10;;;1.00;;
24163;SDS011;12319;49.204;8.116;2022-08-03T13:25:19;0.93;;;0.93;;
24163;SDS011;12319;49.204;8.116;2022-08-03T13:27:44;1.10;;;1.00;;
24163;SDS011;12319;49.204;8.116;2022-08-03T13:30:10;1.10;;;1.00;;
24163;SDS011;12319;49.204;8.116;2022-08-03T13:32:36;0.90;;;0.90;;
24163;SDS011;12319;49.204;8.116;2022-08-03T13:35:02;3.03;;;0.90;;
24163;SDS011;12319;49.204;8.116;2022-08-03T13:37:29;1.05;;;1.05;;
24163;SDS011;12319;49.204;8.116;2022-08-03T13:39:56;0.90;;;0.90;;
24163;SDS011;12319;49.204;8.116;2022-08-03T13:42:22;1.13;;;1.05;;
24163;SDS011;12319;49.204;8.116;2022-08-03T13:44:49;1.05;;;1.05;;
24163;SDS011;12319;49.204;8.116;2022-08-03T13:47:14;0.80;;;0.80;;
24163;SDS011;12319;49.204;8.116;2022-08-03T13:49:40;3.88;;;1.00;;
24163;SDS011;12319;49.204;8.116;2022-08-03T13:52:06;0.90;;;0.90;;
24163;SDS011;12319;49.204;8.116;2022-08-03T13:54:31;0.90;;;0.90;;
24163;SDS011;12319;49.204;8.116;2022-08-03T13:56:57;0.90;;;0.90;;
24163;SDS011;12319;49.204;8.116;2022-08-03T13:59:23;1.13;;;1.10;;
24163;SDS011;12319;49.204;8.116;2022-08-03T14:01:50;1.00;;;1.00;;
24163;SDS011;12319;49.204;8.116;2022-08-03T14:04:17;0.80;;;0.80;;
24163;SDS011;12319;49.204;8.116;2022-08-03T14:06:43;2.15;;;1.00;;
24163;SDS011;12319;49.204;8.116;2022-08-03T14:09:12;0.82;;;0.82;;
24163;SDS011;12319;49.204;8.116;2022-08-03T14:11:42;0.85;;;0.85;;
24163;SDS011;12319;49.204;8.116;2022-08-03T14:14:08;0.70;;;0.70;;
24163;SDS011;12319;49.204;8.116;2022-08-03T14:16:34;1.00;;;1.00;;
24163;SDS011;12319;49.204;8.116;2022-08-03T14:19:01;2.72;;;0.77;;
24163;SDS011;12319;49.204;8.116;2022-08-03T14:21:26;1.00;;;1.00;;
24163;SDS011;12319;49.204;8.116;2022-08-03T14:23:52;0.90;;;0.90;;
24163;SDS011;12319;49.204;8.116;2022-08-03T14:26:17;0.80;;;0.80;;
24163;SDS011;12319;49.204;8.116;2022-08-03T14:28:44;1.00;;;1.00;;
24163;SDS011;12319;49.204;8.116;2022-08-03T14:31:10;0.90;;;0.90;;
24163;SDS011;12319;49.204;8.116;2022-08-03T14:33:36;0.90;;;0.90;;
24163;SDS011;12319;49.204;8.116;2022-08-03T14:36:03;1.00;;;1.00;;
24163;SDS011;12319;49.204;8.116;2022-08-03T14:38:29;1.00;;;1.00;;
24163;SDS011;12319;49.204;8.116;2022-08-03T14:40:54;1.17;;;0.90;;
24163;SDS011;12319;49.204;8.116;2022-08-03T14:43:20;1.10;;;1.00;;
24163;SDS011;12319;49.204;8.116;2022-08-03T14:45:50;0.80;;;0.80;;
24163;SDS011;12319;49.204;8.116;2022-08-03T14:48:18;1.00;;;0.82;;
24163;SDS011;12319;49.204;8.116;2022-08-03T14:50:44;1.00;;;0.90;;
24163;SDS011;12319;49.204;8.116;2022-08-03T14:53:09;0.88;;;0.88;;
24163;SDS011;12319;49.204;8.116;2022-08-03T14:55:35;0.80;;;0.80;;
24163;SDS011;12319;49.204;8.116;2022-08-03T14:58:01;1.00;;;1.00;;
24163;SDS011;12319;49.204;8.116;2022-08-03T15:00:30;3.25;;;1.10;;
24163;SDS011;12319;49.204;8.116;2022-08-03T15:02:56;0.82;;;0.82;;
24163;SDS011;12319;49.204;8.116;2022-08-03T15:05:22;1.10;;;1.10;;
24163;SDS011;12319;49.204;8.116;2022-08-03T15:07:47;1.58;;;1.00;;
24163;SDS011;12319;49.204;8.116;2022-08-03T15:10:13;1.23;;;1.23;;
24163;SDS011;12319;49.204;8.116;2022-08-03T15:12:38;1.00;;;0.90;;
24163;SDS011;12319;49.204;8.116;2022-08-03T15:15:04;0.93;;;0.93;;
24163;SDS011;12319;49.204;8.116;2022-08-03T15:17:30;0.70;;;0.70;;
24163;SDS011;12319;49.204;8.116;2022-08-03T15:19:55;1.95;;;0.90;;
24163;SDS011;12319;49.204;8.116;2022-08-03T15:22:21;0.90;;;0.90;;
24163;SDS011;12319;49.204;8.116;2022-08-03T15:24:46;0.90;;;0.90;;
24163;SDS011;12319;49.204;8.116;2022-08-03T15:27:12;0.80;;;0.80;;
24163;SDS011;12319;49.204;8.116;2022-08-03T15:29:37;0.85;;;0.85;;
24163;SDS011;12319;49.204;8.116;2022-08-03T15:32:03;0.70;;;0.70;;
24163;SDS011;12319;49.204;8.116;2022-08-03T15:34:29;2.80;;;0.90;;
24163;SDS011;12319;49.204;8.116;2022-08-03T15:36:54;2.28;;;1.10;;